sensor_id;sensor_type;location;lat;lon;timestamp;P1;durP1;ratioP1;P2;durP2;ratioP2
52106;SDS011;38105;52.968;5.974;2023-07-02T18:04:18;13.07;;;5.30;;
52106;SDS011;38105;52.968;5.974;2023-07-02T18:06:47;15.00;;;5.22;;
52106;SDS011;38105;52.968;5.974;2023-07-02T18:09:17;14.02;;;4.82;;
52106;SDS011;38105;52.968;5.974;2023-07-02T18:11:43;13.73;;;5.35;;
52106;SDS011;38105;52.968;5.974;2023-07-02T18:14:09;11.85;;;4.97;;
52106;SDS011;38105;52.968;5.974;2023-07-02T18:16:34;12.68;;;4.95;;
52106;SDS011;38105;52.968;5.974;2023-07-02T18:19:00;17.25;;;5.22;;
52106;SDS011;38105;52.968;5.974;2023-07-02T18:21:26;12.15;;;5.10;;
52106;SDS011;38105;52.968;5.974;2023-07-02T18:23:52;19.08;;;5.68;;
52106;SDS011;38105;52.968;5.974;2023-07-02T18:26:18;13.38;;;4.97;;
52106;SDS011;38105;52.968;5.974;2023-07-02T18:28:43;11.35;;;5.13;;
52106;SDS011;38105;52.968;5.974;2023-07-02T18:31:09;14.90;;;5.40;;
52106;SDS011;38105;52.968;5.974;2023-07-02T18:33:35;13.25;;;5.30;;
52106;SDS011;38105;52.968;5.974;2023-07-02T18:36:01;17.40;;;5.80;;
52106;SDS011;38105;52.968;5.974;2023-07-02T18:38:27;13.30;;;5.80;;
52106;SDS011;38105;52.968;5.974;2023-07-02T18:41:27;16.15;;;5.63;;
52106;SDS011;38105;52.968;5.974;2023-07-02T18:43:46;17.30;;;5.53;;
52106;SDS011;38105;52.968;5.974;2023-07-02T18:46:11;17.27;;;5.93;;
52106;SDS011;38105;52.968;5.974;2023-07-02T18:48:37;22.05;;;6.18;;
52106;SDS011;38105;52.968;5.974;2023-07-02T18:51:04;15.52;;;5.95;;
52106;SDS011;38105;52.968;5.974;2023-07-02T18:53:31;16.52;;;6.30;;
52106;SDS011;38105;52.968;5.974;2023-07-02T18:55:59;15.77;;;6.45;;
52106;SDS011;38105;52.968;5.974;2023-07-02T18:58:27;14.63;;;6.45;;
52106;SDS011;38105;52.968;5.974;2023-07-02T19:00:54;14.48;;;6.30;;
52106;SDS011;38105;52.968;5.974;2023-07-02T19:03:20;14.55;;;6.47;;
52106;SDS011;38105;52.968;5.974;2023-07-02T19:05:46;17.02;;;7.15;;
52106;SDS011;38105;52.968;5.974;2023-07-02T19:08:13;21.58;;;6.97;;
52106;SDS011;38105;52.968;5.974;2023-07-02T19:10:40;14.95;;;6.72;;
52106;SDS011;38105;52.968;5.974;2023-07-02T19:13:06;15.20;;;6.03;;
52106;SDS011;38105;52.968;5.974;2023-07-02T19:15:34;17.63;;;6.65;;
52106;SDS011;38105;52.968;5.974;2023-07-02T19:18:00;15.63;;;5.65;;
52106;SDS011;38105;52.968;5.974;2023-07-02T19:20:27;19.30;;;7.10;;
52106;SDS011;38105;52.968;5.974;2023-07-02T19:22:53;20.25;;;6.75;;
52106;SDS011;38105;52.968;5.974;2023-07-02T19:25:19;14.73;;;6.43;;
52106;SDS011;38105;52.968;5.974;2023-07-02T19:27:45;20.08;;;6.85;;
52106;SDS011;38105;52.968;5.974;2023-07-02T19:30:11;17.98;;;6.45;;
52106;SDS011;38105;52.968;5.974;2023-07-02T19:32:37;17.83;;;6.80;;
52106;SDS011;38105;52.968;5.974;2023-07-02T19:35:03;17.15;;;6.25;;
52106;SDS011;38105;52.968;5.974;2023-07-02T19:37:30;19.75;;;7.15;;
52106;SDS011;38105;52.968;5.974;2023-07-02T19:39:56;20.27;;;6.47;;
52106;SDS011;38105;52.968;5.974;2023-07-02T19:42:23;16.33;;;6.35;;
52106;SDS011;38105;52.968;5.974;2023-07-02T19:44:58;15.68;;;6.55;;
52106;SDS011;38105;52.968;5.974;2023-07-02T19:47:27;20.48;;;7.15;;
52106;SDS011;38105;52.968;5.974;2023-07-02T19:49:58;16.85;;;6.68;;
52106;SDS011;38105;52.968;5.974;2023-07-02T19:52:25;18.73;;;6.18;;
52106;SDS011;38105;52.968;5.974;2023-07-02T19:54:55;19.05;;;6.63;;
52106;SDS011;38105;52.968;5.974;2023-07-02T19:57:24;20.33;;;7.07;;
52106;SDS011;38105;52.968;5.974;2023-07-02T19:59:49;23.98;;;6.50;;
52106;SDS011;38105;52.968;5.974;2023-07-02T20:02:16;22.80;;;6.78;;
52106;SDS011;38105;52.968;5.974;2023-07-02T20:04:43;21.40;;;7.05;;
52106;SDS011;38105;52.968;5.974;2023-07-02T20:07:13;18.67;;;5.88;;
52106;SDS011;38105;52.968;5.974;2023-07-02T20:09:43;16.70;;;6.50;;
52106;SDS011;38105;52.968;5.974;2023-07-02T20:12:10;24.40;;;7.25;;
52106;SDS011;38105;52.968;5.974;2023-07-02T20:14:36;20.10;;;6.65;;
52106;SDS011;38105;52.968;5.974;2023-07-02T20:17:04;20.20;;;6.47;;
52106;SDS011;38105;52.968;5.974;2023-07-02T20:19:32;20.73;;;7.30;;
52106;SDS011;38105;52.968;5.974;2023-07-02T20:21:58;18.80;;;6.55;;
52106;SDS011;38105;52.968;5.974;2023-07-02T20:24:24;20.60;;;6.68;;
52106;SDS011;38105;52.968;5.974;2023-07-02T20:26:51;19.42;;;6.38;;
52106;SDS011;38105;52.968;5.974;2023-07-02T20:29:18;20.65;;;6.63;;
52106;SDS011;38105;52.968;5.974;2023-07-02T20:31:45;19.38;;;5.82;;
52106;SDS011;38105;52.968;5.974;2023-07-02T20:34:11;17.65;;;6.18;;
52106;SDS011;38105;52.968;5.974;2023-07-02T20:36:37;15.98;;;6.47;;
52106;SDS011;38105;52.968;5.974;2023-07-02T20:39:02;15.98;;;5.90;;
52106;SDS011;38105;52.968;5.974;2023-07-02T20:41:28;16.08;;;5.72;;
52106;SDS011;38105;52.968;5.974;2023-07-02T20:43:55;21.55;;;6.20;;
52106;SDS011;38105;52.968;5.974;2023-07-02T20:46:28;16.45;;;5.97;;
52106;SDS011;38105;52.968;5.974;2023-07-02T20:48:55;17.88;;;5.43;;
52106;SDS011;38105;52.968;5.974;2023-07-02T20:51:22;18.45;;;5.43;;
52106;SDS011;38105;52.968;5.974;2023-07-02T20:53:48;15.82;;;6.25;;
52106;SDS011;38105;52.968;5.974;2023-07-02T20:56:14;18.35;;;6.15;;
52106;SDS011;38105;52.968;5.974;2023-07-02T20:58:40;18.05;;;5.25;;
52106;SDS011;38105;52.968;5.974;2023-07-02T21:01:07;22.50;;;5.72;;
52106;SDS011;38105;52.968;5.974;2023-07-02T21:03:34;19.17;;;5.60;;
52106;SDS011;38105;52.968;5.974;2023-07-02T21:06:05;16.27;;;5.70;;
52106;SDS011;38105;52.968;5.974;2023-07-02T21:08:32;18.58;;;5.50;;
52106;SDS011;38105;52.968;5.974;2023-07-02T21:10:58;14.63;;;5.47;;
52106;SDS011;38105;52.968;5.974;2023-07-02T21:13:23;14.80;;;4.63;;
52106;SDS011;38105;52.968;5.974;2023-07-02T21:15:56;15.65;;;5.20;;
52106;SDS011;38105;52.968;5.974;2023-07-02T21:18:22;17.08;;;4.85;;
52106;SDS011;38105;52.968;5.974;2023-07-02T21:20:48;15.23;;;4.95;;
52106;SDS011;38105;52.968;5.974;2023-07-02T21:23:14;17.75;;;5.22;;
52106;SDS011;38105;52.968;5.974;2023-07-02T21:25:40;16.60;;;4.93;;
52106;SDS011;38105;52.968;5.974;2023-07-02T21:28:06;17.35;;;5.45;;
52106;SDS011;38105;52.968;5.974;2023-07-02T21:30:32;17.80;;;5.45;;
52106;SDS011;38105;52.968;5.974;2023-07-02T21:32:57;19.73;;;5.20;;
52106;SDS011;38105;52.968;5.974;2023-07-02T21:35:26;22.52;;;5.43;;
52106;SDS011;38105;52.968;5.974;2023-07-02T21:37:52;19.27;;;5.28;;
52106;SDS011;38105;52.968;5.974;2023-07-02T21:40:18;16.73;;;5.43;;
52106;SDS011;38105;52.968;5.974;2023-07-02T21:42:44;15.55;;;5.10;;
52106;SDS011;38105;52.968;5.974;2023-07-02T21:45:09;17.13;;;4.78;;
52106;SDS011;38105;52.968;5.974;2023-07-02T21:47:35;19.83;;;5.25;;
52106;SDS011;38105;52.968;5.974;2023-07-02T21:50:01;15.80;;;4.55;;
52106;SDS011;38105;52.968;5.974;2023-07-02T21:52:27;21.23;;;5.25;;
52106;SDS011;38105;52.968;5.974;2023-07-02T21:54:55;17.48;;;5.43;;
52106;SDS011;38105;52.968;5.974;2023-07-02T21:57:21;16.77;;;5.32;;
52106;SDS011;38105;52.968;5.974;2023-07-02T21:59:47;17.40;;;4.50;;
52106;SDS011;38105;52.968;5.974;2023-07-02T22:02:12;14.85;;;4.78;;
52106;SDS011;38105;52.968;5.974;2023-07-02T22:04:38;15.85;;;5.00;;
52106;SDS011;38105;52.968;5.974;2023-07-02T22:07:04;18.50;;;5.15;;
52106;SDS011;38105;52.968;5.974;2023-07-02T22:09:31;15.93;;;4.65;;
52106;SDS011;38105;52.968;5.974;2023-07-02T22:11:58;17.67;;;5.15;;
52106;SDS011;38105;52.968;5.974;2023-07-02T22:14:24;16.63;;;4.90;;
52106;SDS011;38105;52.968;5.974;2023-07-02T22:16:49;17.30;;;4.57;;
52106;SDS011;38105;52.968;5.974;2023-07-02T22:19:15;15.25;;;4.57;;
52106;SDS011;38105;52.968;5.974;2023-07-02T22:21:41;16.85;;;4.63;;
52106;SDS011;38105;52.968;5.974;2023-07-02T22:24:09;15.55;;;4.75;;
52106;SDS011;38105;52.968;5.974;2023-07-02T22:26:38;18.30;;;5.28;;
52106;SDS011;38105;52.968;5.974;2023-07-02T22:29:04;15.05;;;4.45;;
52106;SDS011;38105;52.968;5.974;2023-07-02T22:31:29;13.93;;;4.15;;
52106;SDS011;38105;52.968;5.974;2023-07-02T22:33:55;12.38;;;4.03;;
52106;SDS011;38105;52.968;5.974;2023-07-02T22:36:21;13.75;;;4.20;;
52106;SDS011;38105;52.968;5.974;2023-07-02T22:38:47;15.20;;;4.65;;
52106;SDS011;38105;52.968;5.974;2023-07-02T22:41:13;18.15;;;4.57;;
52106;SDS011;38105;52.968;5.974;2023-07-02T22:43:38;15.77;;;4.28;;
52106;SDS011;38105;52.968;5.974;2023-07-02T22:46:04;16.10;;;4.85;;
52106;SDS011;38105;52.968;5.974;2023-07-02T22:48:30;18.73;;;4.53;;
52106;SDS011;38105;52.968;5.974;2023-07-02T22:50:56;17.13;;;5.80;;
52106;SDS011;38105;52.968;5.974;2023-07-02T22:53:23;16.13;;;4.75;;
52106;SDS011;38105;52.968;5.974;2023-07-02T22:55:49;17.48;;;4.88;;
52106;SDS011;38105;52.968;5.974;2023-07-02T22:58:15;17.42;;;4.50;;
52106;SDS011;38105;52.968;5.974;2023-07-02T23:00:40;18.38;;;5.07;;
52106;SDS011;38105;52.968;5.974;2023-07-02T23:03:06;14.77;;;4.68;;
52106;SDS011;38105;52.968;5.974;2023-07-02T23:05:32;20.90;;;5.15;;
52106;SDS011;38105;52.968;5.974;2023-07-02T23:07:57;20.85;;;5.80;;
52106;SDS011;38105;52.968;5.974;2023-07-02T23:10:23;20.30;;;5.05;;
52106;SDS011;38105;52.968;5.974;2023-07-02T23:12:49;18.45;;;4.88;;
52106;SDS011;38105;52.968;5.974;2023-07-02T23:15:17;20.65;;;6.18;;
52106;SDS011;38105;52.968;5.974;2023-07-02T23:17:45;18.65;;;5.05;;
52106;SDS011;38105;52.968;5.974;2023-07-02T23:20:13;22.25;;;5.05;;
52106;SDS011;38105;52.968;5.974;2023-07-02T23:22:43;19.92;;;4.90;;
52106;SDS011;38105;52.968;5.974;2023-07-02T23:25:10;12.75;;;4.40;;
52106;SDS011;38105;52.968;5.974;2023-07-02T23:27:38;19.95;;;5.50;;
52106;SDS011;38105;52.968;5.974;2023-07-02T23:30:12;15.27;;;4.72;;
52106;SDS011;38105;52.968;5.974;2023-07-02T23:32:42;16.30;;;4.70;;
52106;SDS011;38105;52.968;5.974;2023-07-02T23:35:10;18.35;;;4.90;;
52106;SDS011;38105;52.968;5.974;2023-07-02T23:37:37;19.42;;;4.65;;
52106;SDS011;38105;52.968;5.974;2023-07-02T23:40:06;16.45;;;4.72;;
52106;SDS011;38105;52.968;5.974;2023-07-02T23:42:37;17.13;;;3.75;;
52106;SDS011;38105;52.968;5.974;2023-07-02T23:45:03;18.00;;;4.53;;
52106;SDS011;38105;52.968;5.974;2023-07-02T23:47:30;18.92;;;5.18;;
52106;SDS011;38105;52.968;5.974;2023-07-02T23:49:56;16.63;;;4.63;;
52106;SDS011;38105;52.968;5.974;2023-07-02T23:52:22;13.60;;;4.22;;
52106;SDS011;38105;52.968;5.974;2023-07-02T23:54:49;18.50;;;4.15;;
52106;SDS011;38105;52.968;5.974;2023-07-02T23:57:14;19.55;;;4.85;;
52106;SDS011;38105;52.968;5.974;2023-07-02T23:59:40;16.63;;;5.00;;
